createdAt,value
2023-02-23T00:02:06.603Z,13.79
2023-02-23T00:04:35.308Z,13.78
2023-02-23T00:07:02.345Z,13.78
2023-02-23T00:09:35.490Z,13.79
2023-02-23T00:12:07.755Z,13.78
2023-02-23T00:14:37.630Z,13.78
2023-02-23T00:17:05.077Z,13.78
2023-02-23T00:19:33.631Z,13.79
2023-02-23T00:22:01.282Z,13.77
2023-02-23T00:24:28.073Z,13.76
2023-02-23T00:26:55.085Z,13.74
2023-02-23T00:29:23.878Z,13.72
2023-02-23T00:31:52.088Z,13.68
2023-02-23T00:34:23.704Z,13.65
2023-02-23T00:36:54.127Z,13.63
2023-02-23T00:39:26.794Z,13.61
2023-02-23T00:41:55.353Z,13.61
2023-02-23T00:44:24.078Z,13.61
2023-02-23T00:46:52.012Z,13.60
2023-02-23T00:49:20.429Z,13.59
2023-02-23T00:51:47.473Z,13.60
2023-02-23T00:54:15.642Z,13.59
2023-02-23T00:56:43.016Z,13.59
2023-02-23T00:59:10.865Z,13.59
2023-02-23T01:01:38.736Z,13.57
2023-02-23T01:04:07.352Z,13.55
2023-02-23T01:06:37.572Z,13.56
2023-02-23T01:09:09.281Z,13.54
2023-02-23T01:11:36.026Z,13.53
2023-02-23T01:14:03.165Z,13.52
2023-02-23T01:16:33.178Z,13.50
2023-02-23T01:19:03.506Z,13.49
2023-02-23T01:21:36.077Z,13.49
2023-02-23T01:24:03.428Z,13.46
2023-02-23T01:26:36.418Z,13.42
2023-02-23T01:29:12.681Z,13.39
2023-02-23T01:31:42.084Z,13.32
2023-02-23T01:34:11.917Z,13.29
2023-02-23T01:36:40.265Z,13.26
2023-02-23T01:39:12.183Z,13.27
2023-02-23T01:41:42.559Z,13.24
2023-02-23T01:44:15.387Z,13.22
2023-02-23T01:46:45.555Z,13.19
2023-02-23T01:49:17.718Z,13.18
2023-02-23T01:51:48.569Z,13.17
2023-02-23T01:54:29.059Z,13.15
2023-02-23T01:56:58.482Z,13.16
2023-02-23T01:59:35.200Z,13.17
2023-02-23T02:02:05.621Z,13.18
2023-02-23T02:04:44.602Z,13.19
2023-02-23T02:07:18.051Z,13.20
2023-02-23T02:10:09.763Z,13.19
2023-02-23T02:12:41.442Z,13.17
2023-02-23T02:15:17.156Z,13.17
2023-02-23T02:17:59.569Z,13.16
2023-02-23T02:20:32.759Z,13.15
2023-02-23T02:23:11.686Z,13.13
2023-02-23T02:26:09.873Z,13.10
2023-02-23T02:28:54.930Z,13.09
2023-02-23T02:31:28.024Z,13.06
2023-02-23T02:34:33.682Z,13.01
2023-02-23T02:37:24.508Z,13.02
2023-02-23T02:40:22.433Z,13.03
2023-02-23T02:43:24.102Z,13.02
2023-02-23T02:46:03.651Z,13.05
2023-02-23T02:48:37.239Z,13.05
2023-02-23T02:51:24.865Z,13.03
2023-02-23T02:54:10.616Z,13.01
2023-02-23T02:56:43.944Z,13.02
2023-02-23T02:59:33.253Z,13.02
2023-02-23T03:02:18.594Z,13.01
2023-02-23T03:05:03.944Z,13.01
2023-02-23T03:08:02.550Z,12.99
2023-02-23T03:11:00.139Z,12.98
2023-02-23T03:14:12.317Z,12.96
2023-02-23T03:16:57.797Z,12.96
2023-02-23T03:19:55.359Z,12.94
2023-02-23T03:22:46.979Z,12.92
2023-02-23T03:25:40.139Z,12.92
2023-02-23T03:28:33.502Z,12.92
2023-02-23T03:31:25.873Z,12.93
2023-02-23T03:34:28.320Z,12.93
2023-02-23T03:37:32.120Z,12.90
2023-02-23T03:40:29.685Z,12.89
2023-02-23T03:43:18.338Z,12.87
2023-02-23T03:46:07.200Z,12.85
2023-02-23T03:48:55.141Z,12.83
2023-02-23T03:51:43.479Z,12.82
2023-02-23T03:54:34.479Z,12.82
2023-02-23T03:57:24.248Z,12.83
2023-02-23T04:00:16.500Z,12.82
2023-02-23T04:03:06.066Z,12.83
2023-02-23T04:05:55.541Z,12.82
2023-02-23T04:08:46.853Z,12.82
2023-02-23T04:12:03.057Z,12.83
2023-02-23T04:14:42.998Z,12.84
2023-02-23T04:17:12.316Z,12.83
2023-02-23T04:19:38.937Z,12.83
2023-02-23T04:22:05.573Z,12.83
2023-02-23T04:24:32.112Z,12.82
2023-02-23T04:26:58.844Z,12.82
2023-02-23T04:29:25.492Z,12.82
2023-02-23T04:31:54.126Z,12.82
2023-02-23T04:34:21.110Z,12.82
2023-02-23T04:36:47.957Z,12.80
2023-02-23T04:39:14.590Z,12.79
2023-02-23T04:41:41.232Z,12.78
2023-02-23T04:44:07.863Z,12.76
2023-02-23T04:46:34.399Z,12.78
2023-02-23T04:49:01.088Z,12.78
2023-02-23T04:51:32.313Z,12.79
2023-02-23T04:53:59.016Z,12.79
2023-02-23T04:56:26.066Z,12.76
2023-02-23T04:58:52.704Z,12.76
2023-02-23T05:01:21.015Z,12.71
2023-02-23T05:03:49.054Z,12.70
2023-02-23T05:06:16.500Z,12.69
2023-02-23T05:08:43.443Z,12.69
2023-02-23T05:11:10.495Z,12.71
2023-02-23T05:13:37.130Z,12.71
2023-02-23T05:16:04.356Z,12.71
2023-02-23T05:18:31.120Z,12.71
2023-02-23T05:21:07.093Z,12.69
2023-02-23T05:23:35.007Z,12.68
2023-02-23T05:26:04.267Z,12.66
2023-02-23T05:28:30.982Z,12.68
2023-02-23T05:30:57.751Z,12.68
2023-02-23T05:33:24.556Z,12.68
2023-02-23T05:35:51.195Z,12.70
2023-02-23T05:38:17.940Z,12.69
2023-02-23T05:40:44.561Z,12.67
2023-02-23T05:43:11.204Z,12.66
2023-02-23T05:45:42.142Z,12.65
2023-02-23T05:48:10.208Z,12.65
2023-02-23T05:50:37.156Z,12.66
2023-02-23T05:53:03.993Z,12.65
2023-02-23T05:55:30.839Z,12.64
2023-02-23T05:57:57.469Z,12.64
2023-02-23T06:00:24.414Z,12.62
2023-02-23T06:02:53.058Z,12.61
2023-02-23T06:05:19.633Z,12.60
2023-02-23T06:07:46.986Z,12.60
2023-02-23T06:10:14.452Z,12.60
2023-02-23T06:12:41.192Z,12.61
2023-02-23T06:15:08.537Z,12.60
2023-02-23T06:17:35.910Z,12.60
2023-02-23T06:20:05.072Z,12.60
2023-02-23T06:22:31.758Z,12.61
2023-02-23T06:24:58.463Z,12.59
2023-02-23T06:27:26.232Z,12.59
2023-02-23T06:29:52.871Z,12.59
2023-02-23T06:32:19.545Z,12.57
2023-02-23T06:34:48.806Z,12.58
2023-02-23T06:37:15.635Z,12.56
2023-02-23T06:39:42.275Z,12.56
2023-02-23T06:42:08.909Z,12.56
2023-02-23T06:44:36.363Z,12.55
2023-02-23T06:47:05.821Z,12.55
2023-02-23T06:49:32.695Z,12.54
2023-02-23T06:51:59.651Z,12.55
2023-02-23T06:54:26.567Z,12.55
2023-02-23T06:56:54.776Z,12.56
2023-02-23T06:59:21.514Z,12.55
2023-02-23T07:01:48.161Z,12.53
2023-02-23T07:04:16.763Z,12.52
2023-02-23T07:06:43.606Z,12.51
2023-02-23T07:09:10.314Z,12.50
2023-02-23T07:11:37.147Z,12.49
2023-02-23T07:14:03.808Z,12.49
2023-02-23T07:16:30.663Z,12.48
2023-02-23T07:18:57.469Z,12.43
2023-02-23T07:21:24.009Z,12.39
2023-02-23T07:23:50.739Z,12.35
2023-02-23T07:26:18.421Z,12.33
2023-02-23T07:28:45.252Z,12.30
2023-02-23T07:31:12.131Z,12.27
2023-02-23T07:33:38.777Z,12.24
2023-02-23T07:36:05.664Z,12.21
2023-02-23T07:38:32.403Z,12.20
2023-02-23T07:40:59.035Z,12.20
2023-02-23T07:43:25.670Z,12.20
2023-02-23T07:45:52.248Z,12.18
2023-02-23T07:48:19.360Z,12.17
2023-02-23T07:50:46.099Z,12.17
2023-02-23T07:53:13.244Z,12.19
2023-02-23T07:55:40.209Z,12.19
2023-02-23T07:58:07.650Z,12.19
2023-02-23T08:00:36.853Z,12.18
2023-02-23T08:03:03.394Z,12.18
2023-02-23T08:05:30.125Z,12.17
2023-02-23T08:07:58.104Z,12.18
2023-02-23T08:10:25.033Z,12.17
2023-02-23T08:12:51.953Z,12.20
2023-02-23T08:15:18.707Z,12.22
2023-02-23T08:17:45.348Z,12.22
2023-02-23T08:20:12.206Z,12.22
2023-02-23T08:22:48.752Z,12.22
2023-02-23T08:25:16.530Z,12.24
2023-02-23T08:27:43.156Z,12.24
2023-02-23T08:30:10.612Z,12.23
2023-02-23T08:32:37.292Z,12.22
2023-02-23T08:35:04.195Z,12.23
2023-02-23T08:37:30.932Z,12.23
2023-02-23T08:39:59.309Z,12.26
2023-02-23T08:42:26.042Z,12.28
2023-02-23T08:44:52.780Z,12.31
2023-02-23T08:47:23.520Z,12.33
2023-02-23T08:49:50.978Z,12.36
2023-02-23T08:52:18.013Z,12.39
2023-02-23T08:54:44.741Z,12.41
2023-02-23T08:57:12.673Z,12.44
2023-02-23T08:59:41.215Z,12.48
2023-02-23T09:02:14.803Z,12.49
2023-02-23T09:04:42.149Z,12.53
2023-02-23T09:07:13.194Z,12.55
2023-02-23T09:09:39.806Z,12.58
2023-02-23T09:12:06.771Z,12.60
2023-02-23T09:14:33.820Z,12.61
2023-02-23T09:17:00.562Z,12.62
2023-02-23T09:19:27.601Z,12.65
2023-02-23T09:21:54.238Z,12.69
2023-02-23T09:24:22.106Z,12.71
2023-02-23T09:26:49.771Z,12.74
2023-02-23T09:29:16.399Z,12.77
2023-02-23T09:31:43.841Z,12.80
2023-02-23T09:34:12.338Z,12.84
2023-02-23T09:36:39.174Z,12.83
2023-02-23T09:39:05.819Z,12.82
2023-02-23T09:42:01.650Z,12.83
2023-02-23T09:44:40.528Z,12.87
2023-02-23T09:47:31.123Z,12.89
2023-02-23T09:50:00.345Z,12.94
2023-02-23T09:53:03.627Z,12.95
2023-02-23T09:55:31.921Z,13.00
2023-02-23T09:58:08.087Z,13.00
2023-02-23T10:00:44.243Z,13.01
2023-02-23T10:03:17.950Z,13.02
2023-02-23T10:05:54.622Z,12.99
2023-02-23T10:08:32.520Z,12.99
2023-02-23T10:11:05.094Z,13.00
2023-02-23T10:13:38.694Z,12.99
2023-02-23T10:16:28.386Z,12.97
2023-02-23T10:19:06.373Z,12.99
2023-02-23T10:21:43.048Z,13.01
2023-02-23T10:24:19.682Z,13.01
2023-02-23T10:26:56.185Z,13.02
2023-02-23T10:29:28.967Z,13.04
2023-02-23T10:32:02.644Z,13.05
2023-02-23T10:34:31.257Z,13.05
2023-02-23T10:37:04.558Z,13.07
2023-02-23T10:39:32.815Z,13.10
2023-02-23T10:42:05.596Z,13.11
2023-02-23T10:44:32.695Z,13.12
2023-02-23T10:47:09.112Z,13.14
2023-02-23T10:49:43.730Z,13.15
2023-02-23T10:52:18.562Z,13.19
2023-02-23T10:54:48.169Z,13.22
2023-02-23T10:57:24.420Z,13.26
2023-02-23T11:00:20.358Z,13.27
2023-02-23T11:02:48.881Z,13.31
2023-02-23T11:05:36.874Z,13.32
2023-02-23T11:08:21.119Z,13.35
2023-02-23T11:11:19.297Z,13.37
2023-02-23T11:13:48.794Z,13.36
2023-02-23T11:16:19.726Z,13.36
2023-02-23T11:18:58.649Z,13.38
2023-02-23T11:21:33.780Z,13.39
2023-02-23T11:24:40.981Z,13.39
2023-02-23T11:27:21.049Z,13.39
2023-02-23T11:29:51.044Z,13.41
2023-02-23T11:32:33.591Z,13.44
2023-02-23T11:35:21.291Z,13.46
2023-02-23T11:37:49.574Z,13.47
2023-02-23T11:40:27.465Z,13.48
2023-02-23T11:43:00.038Z,13.48
2023-02-23T11:45:33.679Z,13.46
2023-02-23T11:48:05.596Z,13.50
2023-02-23T11:50:36.139Z,13.54
2023-02-23T11:53:13.819Z,13.59
2023-02-23T11:55:48.748Z,13.65
2023-02-23T11:58:35.795Z,13.66
2023-02-23T12:01:17.220Z,13.68
2023-02-23T12:03:48.204Z,13.71
2023-02-23T12:06:34.732Z,13.73
2023-02-23T12:09:29.449Z,13.74
2023-02-23T12:12:06.672Z,13.73
2023-02-23T12:14:52.065Z,13.74
2023-02-23T12:17:25.647Z,13.77
2023-02-23T12:20:18.495Z,13.78
2023-02-23T12:23:13.610Z,13.82
2023-02-23T12:25:53.622Z,13.80
2023-02-23T12:28:26.948Z,13.82
2023-02-23T12:31:23.566Z,13.82
2023-02-23T12:33:59.435Z,13.82
2023-02-23T12:36:33.347Z,13.82
2023-02-23T12:39:06.967Z,13.80
2023-02-23T12:41:40.554Z,13.82
2023-02-23T12:44:52.026Z,13.82
2023-02-23T12:47:53.790Z,13.81
2023-02-23T12:50:43.885Z,13.83
2023-02-23T12:53:25.982Z,13.82
2023-02-23T12:56:42.168Z,13.82
2023-02-23T12:59:14.469Z,13.84
2023-02-23T13:01:58.639Z,13.83
2023-02-23T13:04:52.567Z,13.85
2023-02-23T13:07:34.565Z,13.83
2023-02-23T13:10:16.349Z,13.80
2023-02-23T13:12:59.271Z,13.82
2023-02-23T13:15:35.137Z,13.83
2023-02-23T13:18:24.292Z,13.82
2023-02-23T13:20:56.257Z,13.85
2023-02-23T13:23:32.216Z,13.86
2023-02-23T13:26:14.400Z,13.90
2023-02-23T13:29:00.615Z,13.92
2023-02-23T13:31:33.659Z,13.92
2023-02-23T13:34:02.845Z,13.91
2023-02-23T13:36:33.212Z,13.90
2023-02-23T13:39:19.464Z,13.88
2023-02-23T13:42:05.489Z,13.87
2023-02-23T13:44:42.353Z,13.84
2023-02-23T13:47:50.244Z,13.79
2023-02-23T13:50:28.088Z,13.77
2023-02-23T13:52:58.697Z,13.74
2023-02-23T13:55:40.083Z,13.66
2023-02-23T13:58:16.761Z,13.60
2023-02-23T14:00:44.640Z,13.58
2023-02-23T14:03:23.880Z,13.55
2023-02-23T14:05:56.726Z,13.52
2023-02-23T14:08:31.352Z,13.49
2023-02-23T14:10:58.303Z,13.45
2023-02-23T14:13:29.840Z,13.44
2023-02-23T14:16:19.576Z,13.40
2023-02-23T14:19:05.517Z,13.41
2023-02-23T14:21:35.038Z,13.44
2023-02-23T14:24:14.785Z,13.47
2023-02-23T14:27:04.661Z,13.43
2023-02-23T14:29:40.200Z,13.43
2023-02-23T14:32:13.077Z,13.44
2023-02-23T14:34:43.273Z,13.45
2023-02-23T14:37:34.955Z,13.45
2023-02-23T14:40:24.827Z,13.44
2023-02-23T14:42:53.391Z,13.43
2023-02-23T14:45:28.746Z,13.43
2023-02-23T14:48:01.555Z,13.42
2023-02-23T14:50:32.371Z,13.41
2023-02-23T14:53:01.449Z,13.36
2023-02-23T14:55:30.426Z,13.31
2023-02-23T14:57:58.199Z,13.28
2023-02-23T15:00:32.694Z,13.26
2023-02-23T15:03:02.317Z,13.24
2023-02-23T15:05:36.296Z,13.22
2023-02-23T15:08:08.380Z,13.22
2023-02-23T15:10:45.362Z,13.20
2023-02-23T15:13:29.400Z,13.17
2023-02-23T15:16:05.315Z,13.17
2023-02-23T15:18:38.240Z,13.18
2023-02-23T15:21:17.631Z,13.17
2023-02-23T15:23:47.883Z,13.16
2023-02-23T15:26:24.112Z,13.16
2023-02-23T15:28:51.617Z,13.14
2023-02-23T15:31:19.602Z,13.14
2023-02-23T15:33:48.687Z,13.14
2023-02-23T15:36:31.499Z,13.15
2023-02-23T15:39:01.354Z,13.18
2023-02-23T15:41:33.161Z,13.21
2023-02-23T15:44:20.387Z,13.23
2023-02-23T15:46:52.651Z,13.21
2023-02-23T15:49:21.051Z,13.19
2023-02-23T15:51:51.113Z,13.18
2023-02-23T15:54:23.620Z,13.21
2023-02-23T15:56:57.106Z,13.23
2023-02-23T15:59:30.875Z,13.21
2023-02-23T16:02:01.620Z,13.21
2023-02-23T16:04:33.718Z,13.21
2023-02-23T16:07:20.169Z,13.18
2023-02-23T16:09:55.184Z,13.16
2023-02-23T16:12:23.633Z,13.15
2023-02-23T16:14:56.941Z,13.13
2023-02-23T16:17:28.583Z,13.14
2023-02-23T16:20:07.812Z,13.15
2023-02-23T16:22:35.575Z,13.13
2023-02-23T16:25:07.433Z,13.12
2023-02-23T16:27:34.081Z,13.14
2023-02-23T16:30:25.997Z,13.13
2023-02-23T16:33:11.042Z,13.15
2023-02-23T16:35:41.914Z,13.13
2023-02-23T16:38:20.526Z,13.14
2023-02-23T16:40:48.816Z,13.18
2023-02-23T16:43:15.747Z,13.20
2023-02-23T16:45:43.453Z,13.21
2023-02-23T16:48:15.161Z,13.24
2023-02-23T16:50:42.523Z,13.29
2023-02-23T16:53:11.314Z,13.35
2023-02-23T16:55:40.906Z,13.41
2023-02-23T16:58:17.757Z,13.49
2023-02-23T17:00:44.730Z,13.58
2023-02-23T17:03:27.670Z,13.66
2023-02-23T17:05:58.892Z,13.73
2023-02-23T17:08:26.662Z,13.78
2023-02-23T17:10:55.959Z,13.80
2023-02-23T17:13:25.617Z,13.81
2023-02-23T17:15:56.325Z,13.82
2023-02-23T17:20:59.491Z,13.83
2023-02-23T17:23:30.108Z,13.87
2023-02-23T17:25:57.693Z,13.92
2023-02-23T17:28:25.756Z,13.98
2023-02-23T17:30:54.275Z,14.05
2023-02-23T17:33:21.098Z,14.09
2023-02-23T17:35:47.900Z,14.12
2023-02-23T17:38:15.167Z,14.15
2023-02-23T17:40:41.799Z,14.17
2023-02-23T17:43:09.733Z,14.17
2023-02-23T17:45:36.810Z,14.18
2023-02-23T17:48:03.589Z,14.18
2023-02-23T17:50:34.867Z,14.15
2023-02-23T17:53:01.444Z,14.13
2023-02-23T17:55:28.069Z,14.13
2023-02-23T17:57:54.709Z,14.14
2023-02-23T18:00:21.443Z,14.13
2023-02-23T18:02:48.260Z,14.09
2023-02-23T18:05:15.331Z,13.98
2023-02-23T18:07:42.678Z,13.85
2023-02-23T18:10:09.861Z,13.70
2023-02-23T18:12:36.778Z,13.56
2023-02-23T18:15:03.825Z,13.42
2023-02-23T18:17:32.500Z,13.30
2023-02-23T18:20:00.346Z,13.18
2023-02-23T18:22:27.004Z,13.11
2023-02-23T18:24:53.641Z,13.02
2023-02-23T18:27:20.172Z,12.96
2023-02-23T18:29:46.706Z,12.92
2023-02-23T18:32:13.534Z,12.87
2023-02-23T18:34:40.297Z,12.81
2023-02-23T18:37:10.240Z,12.76
2023-02-23T18:39:37.246Z,12.68
2023-02-23T18:42:04.477Z,12.60
2023-02-23T18:44:32.898Z,12.55
2023-02-23T18:47:00.645Z,12.49
2023-02-23T18:49:27.283Z,12.44
2023-02-23T18:51:54.529Z,12.38
2023-02-23T18:54:22.515Z,12.34
2023-02-23T18:56:50.743Z,12.27
2023-02-23T18:59:17.309Z,12.21
2023-02-23T19:01:46.720Z,12.18
2023-02-23T19:04:13.753Z,12.16
2023-02-23T19:06:43.488Z,12.12
2023-02-23T19:09:13.268Z,12.09
2023-02-23T19:11:42.470Z,12.05
2023-02-23T19:14:15.872Z,12.03
2023-02-23T19:16:43.842Z,12.00
2023-02-23T19:19:10.574Z,11.95
2023-02-23T19:21:37.815Z,11.94
2023-02-23T19:24:30.769Z,11.89
2023-02-23T19:26:57.404Z,11.87
2023-02-23T19:29:24.065Z,11.83
2023-02-23T19:31:50.831Z,11.80
2023-02-23T19:34:17.625Z,11.77
2023-02-23T19:36:47.148Z,11.73
2023-02-23T19:39:15.548Z,11.70
2023-02-23T19:41:44.557Z,11.68
2023-02-23T19:44:11.236Z,11.66
2023-02-23T19:46:39.901Z,11.63
2023-02-23T19:49:06.765Z,11.62
2023-02-23T19:51:33.420Z,11.59
2023-02-23T19:54:00.148Z,11.55
2023-02-23T19:56:30.592Z,11.50
2023-02-23T19:58:59.459Z,11.44
2023-02-23T20:01:27.825Z,11.43
2023-02-23T20:03:55.464Z,11.42
2023-02-23T20:06:27.739Z,11.42
2023-02-23T20:08:55.395Z,11.41
2023-02-23T20:11:23.166Z,11.39
2023-02-23T20:13:51.370Z,11.37
2023-02-23T20:16:18.167Z,11.33
2023-02-23T20:18:45.040Z,11.32
2023-02-23T20:21:17.790Z,11.30
2023-02-23T20:23:46.211Z,11.31
2023-02-23T20:26:16.104Z,11.27
2023-02-23T20:28:42.950Z,11.24
2023-02-23T20:31:20.912Z,11.24
2023-02-23T20:33:51.477Z,11.24
2023-02-23T20:36:19.957Z,11.22
2023-02-23T20:38:50.076Z,11.18
2023-02-23T20:41:17.341Z,11.14
2023-02-23T20:43:44.878Z,11.08
2023-02-23T20:46:17.027Z,11.03
2023-02-23T20:48:43.909Z,10.99
2023-02-23T20:51:15.118Z,10.96
2023-02-23T20:53:45.260Z,10.93
2023-02-23T20:56:13.837Z,10.93
2023-02-23T20:58:40.576Z,10.91
2023-02-23T21:01:22.717Z,10.90
2023-02-23T21:03:53.318Z,10.91
2023-02-23T21:06:22.918Z,10.90
2023-02-23T21:08:50.682Z,10.88
2023-02-23T21:11:19.782Z,10.81
2023-02-23T21:13:46.716Z,10.78
2023-02-23T21:16:16.509Z,10.78
2023-02-23T21:18:43.475Z,10.78
2023-02-23T21:21:11.337Z,10.75
2023-02-23T21:23:39.405Z,10.70
2023-02-23T21:26:16.090Z,10.66
2023-02-23T21:28:44.662Z,10.60
2023-02-23T21:31:12.872Z,10.54
2023-02-23T21:33:41.315Z,10.49
2023-02-23T21:36:10.632Z,10.45
2023-02-23T21:38:43.602Z,10.43
2023-02-23T21:41:12.787Z,10.38
2023-02-23T21:43:42.006Z,10.33
2023-02-23T21:46:11.314Z,10.28
2023-02-23T21:48:37.930Z,10.24
2023-02-23T21:51:09.272Z,10.21
2023-02-23T21:53:37.579Z,10.17
2023-02-23T21:56:12.601Z,10.15
2023-02-23T21:58:43.517Z,10.13
2023-02-23T22:01:15.756Z,10.13
2023-02-23T22:03:45.036Z,10.09
2023-02-23T22:06:16.744Z,10.08
2023-02-23T22:08:44.837Z,10.03
2023-02-23T22:11:18.089Z,10.00
2023-02-23T22:13:46.066Z,9.97
2023-02-23T22:16:14.651Z,9.93
2023-02-23T22:18:42.379Z,9.88
2023-02-23T22:21:12.032Z,9.83
2023-02-23T22:23:39.963Z,9.79
2023-02-23T22:26:08.064Z,9.72
2023-02-23T22:28:34.998Z,9.66
2023-02-23T22:31:07.104Z,9.62
2023-02-23T22:33:35.237Z,9.60
2023-02-23T22:36:06.820Z,9.56
2023-02-23T22:38:37.725Z,9.51
2023-02-23T22:41:11.012Z,9.47
2023-02-23T22:43:39.199Z,9.43
2023-02-23T22:46:07.682Z,9.38
2023-02-23T22:48:35.757Z,9.36
2023-02-23T22:51:02.889Z,9.31
2023-02-23T22:53:29.626Z,9.27
2023-02-23T22:55:56.980Z,9.22
2023-02-23T22:58:26.475Z,9.16
2023-02-23T23:01:03.709Z,9.14
2023-02-23T23:03:35.804Z,9.06
2023-02-23T23:06:05.446Z,9.03
2023-02-23T23:08:38.828Z,9.00
2023-02-23T23:11:18.818Z,8.95
2023-02-23T23:13:50.939Z,8.89
2023-02-23T23:16:32.203Z,8.84
2023-02-23T23:19:05.162Z,8.82
2023-02-23T23:21:33.996Z,8.79
2023-02-23T23:24:06.511Z,8.76
2023-02-23T23:26:39.798Z,8.72
2023-02-23T23:29:11.361Z,8.70
2023-02-23T23:31:40.584Z,8.67
2023-02-23T23:34:09.902Z,8.64
2023-02-23T23:36:43.088Z,8.60
2023-02-23T23:39:16.342Z,8.58
2023-02-23T23:41:44.668Z,8.57
2023-02-23T23:44:13.243Z,8.55
2023-02-23T23:46:43.062Z,8.49
2023-02-23T23:49:12.782Z,8.44
2023-02-23T23:51:44.887Z,8.38
2023-02-23T23:54:15.064Z,8.32
2023-02-23T23:56:43.695Z,8.28
2023-02-23T23:59:17.334Z,8.21
